sensor_id;sensor_type;location;lat;lon;timestamp;P1;durP1;ratioP1;P2;durP2;ratioP2
81621;SDS011;71029;50.742;7.090;2023-07-20T00:01:28;5.28;;;2.10;;
81621;SDS011;71029;50.742;7.090;2023-07-20T00:03:55;9.57;;;1.77;;
81621;SDS011;71029;50.742;7.090;2023-07-20T00:06:22;3.95;;;2.03;;
81621;SDS011;71029;50.742;7.090;2023-07-20T00:08:50;4.55;;;2.00;;
81621;SDS011;71029;50.742;7.090;2023-07-20T00:11:20;3.28;;;1.95;;
81621;SDS011;71029;50.742;7.090;2023-07-20T00:13:47;4.38;;;2.20;;
81621;SDS011;71029;50.742;7.090;2023-07-20T00:16:14;5.22;;;1.75;;
81621;SDS011;71029;50.742;7.090;2023-07-20T00:18:40;6.28;;;2.17;;
81621;SDS011;71029;50.742;7.090;2023-07-20T00:21:07;4.10;;;1.90;;
81621;SDS011;71029;50.742;7.090;2023-07-20T00:23:34;5.25;;;2.00;;
81621;SDS011;71029;50.742;7.090;2023-07-20T00:26:01;4.88;;;1.83;;
81621;SDS011;71029;50.742;7.090;2023-07-20T00:28:28;3.28;;;1.92;;
81621;SDS011;71029;50.742;7.090;2023-07-20T00:30:55;3.70;;;1.73;;
81621;SDS011;71029;50.742;7.090;2023-07-20T00:33:21;4.10;;;1.80;;
81621;SDS011;71029;50.742;7.090;2023-07-20T00:35:48;4.65;;;1.92;;
81621;SDS011;71029;50.742;7.090;2023-07-20T00:38:15;2.83;;;1.50;;
81621;SDS011;71029;50.742;7.090;2023-07-20T00:40:41;3.92;;;1.92;;
81621;SDS011;71029;50.742;7.090;2023-07-20T00:43:08;3.45;;;1.52;;
81621;SDS011;71029;50.742;7.090;2023-07-20T00:45:35;3.90;;;1.67;;
81621;SDS011;71029;50.742;7.090;2023-07-20T00:48:03;4.63;;;1.67;;
81621;SDS011;71029;50.742;7.090;2023-07-20T00:50:31;3.25;;;1.70;;
81621;SDS011;71029;50.742;7.090;2023-07-20T00:52:58;3.25;;;1.67;;
81621;SDS011;71029;50.742;7.090;2023-07-20T00:55:25;4.55;;;1.58;;
81621;SDS011;71029;50.742;7.090;2023-07-20T00:57:52;3.67;;;1.70;;
81621;SDS011;71029;50.742;7.090;2023-07-20T01:00:19;3.03;;;1.38;;
81621;SDS011;71029;50.742;7.090;2023-07-20T01:02:46;4.07;;;1.60;;
81621;SDS011;71029;50.742;7.090;2023-07-20T01:05:13;3.80;;;1.42;;
81621;SDS011;71029;50.742;7.090;2023-07-20T01:07:43;2.10;;;1.38;;
81621;SDS011;71029;50.742;7.090;2023-07-20T01:10:20;4.47;;;2.13;;
81621;SDS011;71029;50.742;7.090;2023-07-20T01:12:54;4.43;;;1.63;;
81621;SDS011;71029;50.742;7.090;2023-07-20T01:15:21;3.25;;;1.50;;
81621;SDS011;71029;50.742;7.090;2023-07-20T01:17:48;4.78;;;1.75;;
81621;SDS011;71029;50.742;7.090;2023-07-20T01:20:15;3.67;;;2.08;;
81621;SDS011;71029;50.742;7.090;2023-07-20T01:31:25;1.60;;;1.38;;
81621;SDS011;71029;50.742;7.090;2023-07-20T01:33:55;3.20;;;1.27;;
81621;SDS011;71029;50.742;7.090;2023-07-20T01:36:24;2.72;;;1.40;;
81621;SDS011;71029;50.742;7.090;2023-07-20T01:41:19;2.90;;;1.40;;
81621;SDS011;71029;50.742;7.090;2023-07-20T01:43:47;2.88;;;1.48;;
81621;SDS011;71029;50.742;7.090;2023-07-20T01:46:13;3.03;;;1.52;;
81621;SDS011;71029;50.742;7.090;2023-07-20T01:48:40;4.05;;;1.92;;
81621;SDS011;71029;50.742;7.090;2023-07-20T01:51:07;3.45;;;1.58;;
81621;SDS011;71029;50.742;7.090;2023-07-20T01:53:33;3.63;;;1.73;;
81621;SDS011;71029;50.742;7.090;2023-07-20T01:56:00;4.35;;;1.58;;
81621;SDS011;71029;50.742;7.090;2023-07-20T01:58:26;3.47;;;1.52;;
81621;SDS011;71029;50.742;7.090;2023-07-20T02:00:53;4.05;;;1.52;;
81621;SDS011;71029;50.742;7.090;2023-07-20T02:03:20;3.58;;;1.42;;
81621;SDS011;71029;50.742;7.090;2023-07-20T02:05:48;3.83;;;1.85;;
81621;SDS011;71029;50.742;7.090;2023-07-20T02:08:15;4.18;;;1.63;;
81621;SDS011;71029;50.742;7.090;2023-07-20T02:10:44;4.22;;;1.67;;
81621;SDS011;71029;50.742;7.090;2023-07-20T02:13:11;4.95;;;1.73;;
81621;SDS011;71029;50.742;7.090;2023-07-20T02:15:38;3.50;;;1.40;;
81621;SDS011;71029;50.742;7.090;2023-07-20T02:18:04;3.75;;;1.67;;
81621;SDS011;71029;50.742;7.090;2023-07-20T02:20:31;3.83;;;1.45;;
81621;SDS011;71029;50.742;7.090;2023-07-20T02:22:57;3.35;;;1.52;;
81621;SDS011;71029;50.742;7.090;2023-07-20T02:25:24;4.38;;;1.55;;
81621;SDS011;71029;50.742;7.090;2023-07-20T02:27:50;3.78;;;1.60;;
81621;SDS011;71029;50.742;7.090;2023-07-20T02:30:17;2.90;;;1.92;;
81621;SDS011;71029;50.742;7.090;2023-07-20T02:32:44;3.13;;;1.75;;
81621;SDS011;71029;50.742;7.090;2023-07-20T02:35:15;3.72;;;1.65;;
81621;SDS011;71029;50.742;7.090;2023-07-20T02:37:43;2.65;;;1.60;;
81621;SDS011;71029;50.742;7.090;2023-07-20T02:40:10;3.83;;;1.70;;
81621;SDS011;71029;50.742;7.090;2023-07-20T02:42:37;3.92;;;1.73;;
81621;SDS011;71029;50.742;7.090;2023-07-20T02:45:04;3.75;;;1.83;;
81621;SDS011;71029;50.742;7.090;2023-07-20T02:47:31;3.22;;;2.08;;
81621;SDS011;71029;50.742;7.090;2023-07-20T02:49:58;4.70;;;1.70;;
81621;SDS011;71029;50.742;7.090;2023-07-20T02:52:24;4.00;;;1.77;;
81621;SDS011;71029;50.742;7.090;2023-07-20T02:54:51;4.03;;;1.77;;
81621;SDS011;71029;50.742;7.090;2023-07-20T02:57:18;5.60;;;1.80;;
81621;SDS011;71029;50.742;7.090;2023-07-20T02:59:44;3.08;;;1.80;;
81621;SDS011;71029;50.742;7.090;2023-07-20T03:02:11;3.63;;;1.60;;
81621;SDS011;71029;50.742;7.090;2023-07-20T03:04:37;3.17;;;1.75;;
81621;SDS011;71029;50.742;7.090;2023-07-20T03:07:04;3.20;;;1.63;;
81621;SDS011;71029;50.742;7.090;2023-07-20T03:09:31;3.10;;;1.60;;
81621;SDS011;71029;50.742;7.090;2023-07-20T03:11:58;3.20;;;1.63;;
81621;SDS011;71029;50.742;7.090;2023-07-20T03:14:24;3.15;;;1.70;;
81621;SDS011;71029;50.742;7.090;2023-07-20T03:16:51;3.92;;;1.40;;
81621;SDS011;71029;50.742;7.090;2023-07-20T03:19:17;3.72;;;1.52;;
81621;SDS011;71029;50.742;7.090;2023-07-20T03:21:44;4.05;;;1.58;;
81621;SDS011;71029;50.742;7.090;2023-07-20T03:24:10;3.90;;;1.60;;
81621;SDS011;71029;50.742;7.090;2023-07-20T03:26:37;2.53;;;1.38;;
81621;SDS011;71029;50.742;7.090;2023-07-20T03:29:04;3.53;;;2.53;;
81621;SDS011;71029;50.742;7.090;2023-07-20T03:31:31;3.22;;;1.33;;
81621;SDS011;71029;50.742;7.090;2023-07-20T03:33:57;3.97;;;1.50;;
81621;SDS011;71029;50.742;7.090;2023-07-20T03:36:24;2.92;;;1.42;;
81621;SDS011;71029;50.742;7.090;2023-07-20T03:38:51;4.30;;;1.50;;
81621;SDS011;71029;50.742;7.090;2023-07-20T03:41:17;6.60;;;1.67;;
81621;SDS011;71029;50.742;7.090;2023-07-20T03:43:45;4.68;;;1.95;;
81621;SDS011;71029;50.742;7.090;2023-07-20T03:46:12;2.97;;;1.42;;
81621;SDS011;71029;50.742;7.090;2023-07-20T03:48:39;3.15;;;1.45;;
81621;SDS011;71029;50.742;7.090;2023-07-20T03:51:05;2.80;;;1.55;;
81621;SDS011;71029;50.742;7.090;2023-07-20T03:53:32;4.47;;;1.73;;
81621;SDS011;71029;50.742;7.090;2023-07-20T03:55:58;3.08;;;1.80;;
81621;SDS011;71029;50.742;7.090;2023-07-20T03:58:25;2.58;;;1.20;;
81621;SDS011;71029;50.742;7.090;2023-07-20T04:00:51;3.35;;;1.45;;
81621;SDS011;71029;50.742;7.090;2023-07-20T04:03:18;4.28;;;1.90;;
81621;SDS011;71029;50.742;7.090;2023-07-20T04:05:46;4.90;;;1.80;;
81621;SDS011;71029;50.742;7.090;2023-07-20T04:08:12;3.20;;;1.58;;
81621;SDS011;71029;50.742;7.090;2023-07-20T04:10:39;4.15;;;1.65;;
81621;SDS011;71029;50.742;7.090;2023-07-20T04:13:09;3.63;;;1.52;;
81621;SDS011;71029;50.742;7.090;2023-07-20T04:15:35;3.58;;;2.20;;
81621;SDS011;71029;50.742;7.090;2023-07-20T04:18:02;3.65;;;1.52;;
81621;SDS011;71029;50.742;7.090;2023-07-20T04:20:28;2.78;;;1.42;;
81621;SDS011;71029;50.742;7.090;2023-07-20T04:22:55;4.03;;;1.70;;
81621;SDS011;71029;50.742;7.090;2023-07-20T04:25:22;5.30;;;1.35;;
81621;SDS011;71029;50.742;7.090;2023-07-20T04:27:49;4.10;;;1.73;;
81621;SDS011;71029;50.742;7.090;2023-07-20T04:30:16;4.40;;;1.38;;
81621;SDS011;71029;50.742;7.090;2023-07-20T04:32:45;3.22;;;1.80;;
81621;SDS011;71029;50.742;7.090;2023-07-20T04:35:17;4.85;;;1.45;;
81621;SDS011;71029;50.742;7.090;2023-07-20T04:38:04;3.63;;;1.50;;
81621;SDS011;71029;50.742;7.090;2023-07-20T04:40:31;3.15;;;1.20;;
81621;SDS011;71029;50.742;7.090;2023-07-20T04:42:58;5.72;;;1.75;;
81621;SDS011;71029;50.742;7.090;2023-07-20T04:45:24;4.22;;;1.45;;
81621;SDS011;71029;50.742;7.090;2023-07-20T04:47:51;4.30;;;1.77;;
81621;SDS011;71029;50.742;7.090;2023-07-20T04:50:17;4.25;;;1.50;;
81621;SDS011;71029;50.742;7.090;2023-07-20T04:52:44;3.55;;;1.83;;
81621;SDS011;71029;50.742;7.090;2023-07-20T04:55:12;4.70;;;1.60;;
81621;SDS011;71029;50.742;7.090;2023-07-20T04:57:39;2.88;;;1.48;;
81621;SDS011;71029;50.742;7.090;2023-07-20T05:00:06;4.40;;;1.55;;
81621;SDS011;71029;50.742;7.090;2023-07-20T05:02:32;7.75;;;1.75;;
81621;SDS011;71029;50.742;7.090;2023-07-20T05:04:59;6.50;;;2.40;;
81621;SDS011;71029;50.742;7.090;2023-07-20T05:07:25;4.70;;;1.75;;
81621;SDS011;71029;50.742;7.090;2023-07-20T05:09:52;4.93;;;1.60;;
81621;SDS011;71029;50.742;7.090;2023-07-20T05:12:18;3.65;;;1.45;;
81621;SDS011;71029;50.742;7.090;2023-07-20T05:14:46;3.45;;;1.60;;
81621;SDS011;71029;50.742;7.090;2023-07-20T05:17:12;3.78;;;1.73;;
81621;SDS011;71029;50.742;7.090;2023-07-20T05:19:39;5.55;;;1.90;;
81621;SDS011;71029;50.742;7.090;2023-07-20T05:22:09;5.65;;;1.73;;
81621;SDS011;71029;50.742;7.090;2023-07-20T05:24:37;2.95;;;1.42;;
81621;SDS011;71029;50.742;7.090;2023-07-20T05:27:03;4.75;;;1.98;;
81621;SDS011;71029;50.742;7.090;2023-07-20T05:29:30;5.05;;;1.77;;
81621;SDS011;71029;50.742;7.090;2023-07-20T05:31:57;3.25;;;1.98;;
81621;SDS011;71029;50.742;7.090;2023-07-20T05:34:24;5.13;;;2.22;;
81621;SDS011;71029;50.742;7.090;2023-07-20T05:36:50;5.50;;;2.20;;
81621;SDS011;71029;50.742;7.090;2023-07-20T05:39:17;5.15;;;2.25;;
81621;SDS011;71029;50.742;7.090;2023-07-20T05:41:44;5.95;;;2.35;;
81621;SDS011;71029;50.742;7.090;2023-07-20T05:44:10;9.27;;;2.95;;
81621;SDS011;71029;50.742;7.090;2023-07-20T05:46:37;6.22;;;2.92;;
81621;SDS011;71029;50.742;7.090;2023-07-20T05:49:22;6.30;;;3.00;;
81621;SDS011;71029;50.742;7.090;2023-07-20T05:51:48;7.63;;;3.70;;
81621;SDS011;71029;50.742;7.090;2023-07-20T05:54:15;7.20;;;3.58;;
81621;SDS011;71029;50.742;7.090;2023-07-20T05:56:42;7.00;;;3.08;;
81621;SDS011;71029;50.742;7.090;2023-07-20T05:59:08;9.80;;;3.53;;
81621;SDS011;71029;50.742;7.090;2023-07-20T06:01:35;7.47;;;3.40;;
81621;SDS011;71029;50.742;7.090;2023-07-20T06:04:03;7.63;;;3.85;;
81621;SDS011;71029;50.742;7.090;2023-07-20T06:06:29;6.13;;;2.72;;
81621;SDS011;71029;50.742;7.090;2023-07-20T06:08:56;6.53;;;3.10;;
81621;SDS011;71029;50.742;7.090;2023-07-20T06:11:22;6.78;;;3.00;;
81621;SDS011;71029;50.742;7.090;2023-07-20T06:13:49;7.63;;;3.00;;
81621;SDS011;71029;50.742;7.090;2023-07-20T06:16:15;7.53;;;3.35;;
81621;SDS011;71029;50.742;7.090;2023-07-20T06:18:42;3.67;;;2.50;;
81621;SDS011;71029;50.742;7.090;2023-07-20T06:21:08;10.43;;;3.60;;
81621;SDS011;71029;50.742;7.090;2023-07-20T06:23:35;10.10;;;3.03;;
81621;SDS011;71029;50.742;7.090;2023-07-20T06:26:02;5.68;;;3.63;;
81621;SDS011;71029;50.742;7.090;2023-07-20T06:28:29;7.35;;;2.97;;
81621;SDS011;71029;50.742;7.090;2023-07-20T06:30:59;6.22;;;3.17;;
81621;SDS011;71029;50.742;7.090;2023-07-20T06:33:27;6.57;;;3.20;;
81621;SDS011;71029;50.742;7.090;2023-07-20T06:35:53;6.10;;;2.95;;
81621;SDS011;71029;50.742;7.090;2023-07-20T06:38:20;5.97;;;2.67;;
81621;SDS011;71029;50.742;7.090;2023-07-20T06:40:50;5.75;;;2.65;;
81621;SDS011;71029;50.742;7.090;2023-07-20T06:43:18;6.47;;;3.00;;
81621;SDS011;71029;50.742;7.090;2023-07-20T06:45:51;6.95;;;3.13;;
81621;SDS011;71029;50.742;7.090;2023-07-20T06:48:19;5.95;;;2.83;;
81621;SDS011;71029;50.742;7.090;2023-07-20T06:50:45;6.70;;;2.90;;
81621;SDS011;71029;50.742;7.090;2023-07-20T06:53:12;7.80;;;3.33;;
81621;SDS011;71029;50.742;7.090;2023-07-20T06:55:39;4.85;;;3.05;;
81621;SDS011;71029;50.742;7.090;2023-07-20T06:58:09;9.90;;;4.20;;
81621;SDS011;71029;50.742;7.090;2023-07-20T07:00:36;9.93;;;3.85;;
81621;SDS011;71029;50.742;7.090;2023-07-20T07:03:02;11.95;;;4.93;;
81621;SDS011;71029;50.742;7.090;2023-07-20T07:05:29;7.72;;;3.67;;
81621;SDS011;71029;50.742;7.090;2023-07-20T07:07:59;5.88;;;3.25;;
81621;SDS011;71029;50.742;7.090;2023-07-20T07:10:25;7.15;;;3.10;;
81621;SDS011;71029;50.742;7.090;2023-07-20T07:12:51;6.00;;;3.42;;
81621;SDS011;71029;50.742;7.090;2023-07-20T07:15:18;6.22;;;3.08;;
81621;SDS011;71029;50.742;7.090;2023-07-20T07:17:44;7.40;;;3.53;;
81621;SDS011;71029;50.742;7.090;2023-07-20T07:20:11;7.93;;;2.65;;
81621;SDS011;71029;50.742;7.090;2023-07-20T07:22:47;5.55;;;2.85;;
81621;SDS011;71029;50.742;7.090;2023-07-20T07:25:17;6.28;;;2.95;;
81621;SDS011;71029;50.742;7.090;2023-07-20T07:27:48;4.60;;;2.65;;
81621;SDS011;71029;50.742;7.090;2023-07-20T07:30:15;5.45;;;2.72;;
81621;SDS011;71029;50.742;7.090;2023-07-20T07:32:42;6.53;;;3.63;;
81621;SDS011;71029;50.742;7.090;2023-07-20T07:35:08;8.60;;;3.35;;
81621;SDS011;71029;50.742;7.090;2023-07-20T07:37:35;6.38;;;2.97;;
81621;SDS011;71029;50.742;7.090;2023-07-20T07:40:22;6.57;;;3.58;;
81621;SDS011;71029;50.742;7.090;2023-07-20T07:42:49;6.55;;;2.97;;
81621;SDS011;71029;50.742;7.090;2023-07-20T07:45:15;6.40;;;3.67;;
81621;SDS011;71029;50.742;7.090;2023-07-20T07:47:43;5.05;;;3.38;;
81621;SDS011;71029;50.742;7.090;2023-07-20T07:50:10;4.40;;;2.92;;
81621;SDS011;71029;50.742;7.090;2023-07-20T07:52:36;6.05;;;3.58;;
81621;SDS011;71029;50.742;7.090;2023-07-20T07:55:03;5.03;;;3.13;;
81621;SDS011;71029;50.742;7.090;2023-07-20T07:57:30;5.15;;;3.08;;
81621;SDS011;71029;50.742;7.090;2023-07-20T07:59:57;6.95;;;2.75;;
81621;SDS011;71029;50.742;7.090;2023-07-20T08:02:23;3.92;;;3.05;;
81621;SDS011;71029;50.742;7.090;2023-07-20T08:04:50;4.85;;;2.50;;
81621;SDS011;71029;50.742;7.090;2023-07-20T08:07:18;3.33;;;2.63;;
81621;SDS011;71029;50.742;7.090;2023-07-20T08:09:44;6.53;;;3.33;;
81621;SDS011;71029;50.742;7.090;2023-07-20T08:12:11;7.70;;;2.95;;
81621;SDS011;71029;50.742;7.090;2023-07-20T08:14:39;3.53;;;2.60;;
81621;SDS011;71029;50.742;7.090;2023-07-20T08:17:06;4.70;;;2.50;;
81621;SDS011;71029;50.742;7.090;2023-07-20T08:19:33;7.57;;;2.78;;
81621;SDS011;71029;50.742;7.090;2023-07-20T08:21:59;4.30;;;2.42;;
81621;SDS011;71029;50.742;7.090;2023-07-20T08:24:26;3.55;;;2.15;;
81621;SDS011;71029;50.742;7.090;2023-07-20T08:26:53;5.57;;;2.88;;
81621;SDS011;71029;50.742;7.090;2023-07-20T08:29:19;6.75;;;2.53;;
81621;SDS011;71029;50.742;7.090;2023-07-20T08:31:46;5.75;;;2.53;;
81621;SDS011;71029;50.742;7.090;2023-07-20T08:34:12;5.78;;;2.47;;
81621;SDS011;71029;50.742;7.090;2023-07-20T08:36:56;6.47;;;2.55;;
81621;SDS011;71029;50.742;7.090;2023-07-20T08:39:24;3.58;;;2.30;;
81621;SDS011;71029;50.742;7.090;2023-07-20T08:41:51;4.47;;;2.60;;
81621;SDS011;71029;50.742;7.090;2023-07-20T08:44:18;6.78;;;2.00;;
81621;SDS011;71029;50.742;7.090;2023-07-20T08:46:45;2.63;;;1.73;;
81621;SDS011;71029;50.742;7.090;2023-07-20T08:49:15;5.00;;;2.28;;
81621;SDS011;71029;50.742;7.090;2023-07-20T08:51:45;4.47;;;1.85;;
81621;SDS011;71029;50.742;7.090;2023-07-20T08:54:13;3.80;;;2.10;;
81621;SDS011;71029;50.742;7.090;2023-07-20T08:56:40;5.35;;;2.97;;
81621;SDS011;71029;50.742;7.090;2023-07-20T08:59:08;6.70;;;2.08;;
81621;SDS011;71029;50.742;7.090;2023-07-20T09:01:35;4.85;;;1.92;;
81621;SDS011;71029;50.742;7.090;2023-07-20T09:04:05;3.40;;;1.83;;
81621;SDS011;71029;50.742;7.090;2023-07-20T09:06:32;5.00;;;1.95;;
81621;SDS011;71029;50.742;7.090;2023-07-20T09:09:01;2.83;;;1.85;;
81621;SDS011;71029;50.742;7.090;2023-07-20T09:11:28;3.78;;;1.75;;
81621;SDS011;71029;50.742;7.090;2023-07-20T09:14:04;4.45;;;1.85;;
81621;SDS011;71029;50.742;7.090;2023-07-20T09:16:47;4.30;;;1.85;;
81621;SDS011;71029;50.742;7.090;2023-07-20T09:19:16;4.38;;;1.85;;
81621;SDS011;71029;50.742;7.090;2023-07-20T09:21:47;5.05;;;1.92;;
81621;SDS011;71029;50.742;7.090;2023-07-20T09:24:15;6.57;;;1.80;;
81621;SDS011;71029;50.742;7.090;2023-07-20T09:26:44;5.80;;;1.52;;
81621;SDS011;71029;50.742;7.090;2023-07-20T09:29:14;5.65;;;1.73;;
81621;SDS011;71029;50.742;7.090;2023-07-20T09:32:00;4.45;;;1.58;;
81621;SDS011;71029;50.742;7.090;2023-07-20T09:34:31;3.70;;;1.70;;
81621;SDS011;71029;50.742;7.090;2023-07-20T09:37:01;5.15;;;1.35;;
81621;SDS011;71029;50.742;7.090;2023-07-20T09:39:28;5.07;;;1.73;;
81621;SDS011;71029;50.742;7.090;2023-07-20T09:41:59;2.80;;;1.60;;
81621;SDS011;71029;50.742;7.090;2023-07-20T09:44:30;1.85;;;1.45;;
81621;SDS011;71029;50.742;7.090;2023-07-20T09:47:02;3.22;;;1.27;;
81621;SDS011;71029;50.742;7.090;2023-07-20T09:49:30;3.95;;;1.52;;
81621;SDS011;71029;50.742;7.090;2023-07-20T09:52:17;3.78;;;1.65;;
81621;SDS011;71029;50.742;7.090;2023-07-20T09:55:05;3.00;;;1.63;;
81621;SDS011;71029;50.742;7.090;2023-07-20T09:57:33;7.82;;;1.70;;
81621;SDS011;71029;50.742;7.090;2023-07-20T10:00:02;4.25;;;1.35;;
81621;SDS011;71029;50.742;7.090;2023-07-20T10:02:41;3.08;;;1.52;;
81621;SDS011;71029;50.742;7.090;2023-07-20T10:05:13;4.60;;;1.92;;
81621;SDS011;71029;50.742;7.090;2023-07-20T10:07:47;3.13;;;1.45;;
81621;SDS011;71029;50.742;7.090;2023-07-20T10:10:15;3.45;;;1.38;;
81621;SDS011;71029;50.742;7.090;2023-07-20T10:12:45;3.13;;;1.40;;
81621;SDS011;71029;50.742;7.090;2023-07-20T10:15:23;3.13;;;1.35;;
81621;SDS011;71029;50.742;7.090;2023-07-20T10:20:28;1.90;;;1.17;;
81621;SDS011;71029;50.742;7.090;2023-07-20T10:22:59;3.08;;;1.08;;
81621;SDS011;71029;50.742;7.090;2023-07-20T10:25:27;2.22;;;1.35;;
81621;SDS011;71029;50.742;7.090;2023-07-20T10:27:54;3.45;;;1.40;;
81621;SDS011;71029;50.742;7.090;2023-07-20T10:30:23;1.80;;;1.13;;
81621;SDS011;71029;50.742;7.090;2023-07-20T10:32:51;2.72;;;1.60;;
81621;SDS011;71029;50.742;7.090;2023-07-20T10:35:19;3.08;;;1.52;;
81621;SDS011;71029;50.742;7.090;2023-07-20T10:37:55;2.53;;;1.52;;
81621;SDS011;71029;50.742;7.090;2023-07-20T10:42:57;4.47;;;1.50;;
81621;SDS011;71029;50.742;7.090;2023-07-20T10:45:40;2.85;;;1.40;;
81621;SDS011;71029;50.742;7.090;2023-07-20T10:48:15;2.00;;;1.30;;
81621;SDS011;71029;50.742;7.090;2023-07-20T10:50:43;3.75;;;1.42;;
81621;SDS011;71029;50.742;7.090;2023-07-20T10:53:12;4.05;;;1.50;;
81621;SDS011;71029;50.742;7.090;2023-07-20T10:55:40;1.77;;;1.35;;
81621;SDS011;71029;50.742;7.090;2023-07-20T10:58:10;3.33;;;1.42;;
81621;SDS011;71029;50.742;7.090;2023-07-20T11:00:54;2.92;;;1.20;;
81621;SDS011;71029;50.742;7.090;2023-07-20T11:03:29;3.58;;;1.13;;
81621;SDS011;71029;50.742;7.090;2023-07-20T11:08:55;2.42;;;1.17;;
81621;SDS011;71029;50.742;7.090;2023-07-20T11:11:23;1.75;;;1.02;;
81621;SDS011;71029;50.742;7.090;2023-07-20T11:13:55;3.15;;;1.42;;
81621;SDS011;71029;50.742;7.090;2023-07-20T11:16:39;2.17;;;1.10;;
81621;SDS011;71029;50.742;7.090;2023-07-20T11:19:17;2.35;;;1.10;;
81621;SDS011;71029;50.742;7.090;2023-07-20T11:24:28;2.10;;;1.45;;
81621;SDS011;71029;50.742;7.090;2023-07-20T11:26:55;1.23;;;0.85;;
81621;SDS011;71029;50.742;7.090;2023-07-20T11:29:21;3.50;;;0.95;;
81621;SDS011;71029;50.742;7.090;2023-07-20T11:31:58;1.95;;;1.00;;
81621;SDS011;71029;50.742;7.090;2023-07-20T11:34:25;1.55;;;1.02;;
81621;SDS011;71029;50.742;7.090;2023-07-20T11:36:52;2.15;;;1.00;;
81621;SDS011;71029;50.742;7.090;2023-07-20T11:39:22;3.60;;;1.30;;
81621;SDS011;71029;50.742;7.090;2023-07-20T11:41:53;2.63;;;0.90;;
81621;SDS011;71029;50.742;7.090;2023-07-20T11:44:24;2.38;;;0.90;;
81621;SDS011;71029;50.742;7.090;2023-07-20T11:47:12;3.08;;;1.05;;
81621;SDS011;71029;50.742;7.090;2023-07-20T11:49:40;2.53;;;0.95;;
81621;SDS011;71029;50.742;7.090;2023-07-20T11:54:39;4.07;;;1.42;;
81621;SDS011;71029;50.742;7.090;2023-07-20T11:57:16;3.85;;;1.23;;
81621;SDS011;71029;50.742;7.090;2023-07-20T11:59:53;3.20;;;1.10;;
81621;SDS011;71029;50.742;7.090;2023-07-20T12:02:24;1.75;;;1.02;;
81621;SDS011;71029;50.742;7.090;2023-07-20T12:04:56;2.80;;;1.42;;
81621;SDS011;71029;50.742;7.090;2023-07-20T12:07:25;3.65;;;1.23;;
81621;SDS011;71029;50.742;7.090;2023-07-20T12:10:07;4.90;;;1.35;;
81621;SDS011;71029;50.742;7.090;2023-07-20T12:12:37;3.80;;;1.20;;
81621;SDS011;71029;50.742;7.090;2023-07-20T12:15:12;3.55;;;1.23;;
81621;SDS011;71029;50.742;7.090;2023-07-20T12:17:49;2.55;;;1.23;;
81621;SDS011;71029;50.742;7.090;2023-07-20T12:20:33;3.47;;;1.30;;
81621;SDS011;71029;50.742;7.090;2023-07-20T12:23:08;2.92;;;1.10;;
81621;SDS011;71029;50.742;7.090;2023-07-20T12:25:44;2.13;;;0.93;;
81621;SDS011;71029;50.742;7.090;2023-07-20T12:28:16;2.58;;;0.93;;
81621;SDS011;71029;50.742;7.090;2023-07-20T12:30:44;4.28;;;1.05;;
81621;SDS011;71029;50.742;7.090;2023-07-20T12:33:12;1.55;;;0.90;;
81621;SDS011;71029;50.742;7.090;2023-07-20T12:35:42;5.55;;;1.10;;
81621;SDS011;71029;50.742;7.090;2023-07-20T12:38:09;3.40;;;0.85;;
81621;SDS011;71029;50.742;7.090;2023-07-20T12:40:36;2.15;;;0.90;;
81621;SDS011;71029;50.742;7.090;2023-07-20T12:43:02;2.75;;;0.95;;
81621;SDS011;71029;50.742;7.090;2023-07-20T12:45:30;2.10;;;1.05;;
81621;SDS011;71029;50.742;7.090;2023-07-20T12:47:56;1.42;;;0.70;;
81621;SDS011;71029;50.742;7.090;2023-07-20T12:50:23;2.10;;;0.95;;
81621;SDS011;71029;50.742;7.090;2023-07-20T12:52:49;2.20;;;1.00;;
81621;SDS011;71029;50.742;7.090;2023-07-20T12:55:16;2.05;;;0.95;;
81621;SDS011;71029;50.742;7.090;2023-07-20T12:57:42;2.05;;;1.05;;
81621;SDS011;71029;50.742;7.090;2023-07-20T13:00:09;1.45;;;0.73;;
81621;SDS011;71029;50.742;7.090;2023-07-20T13:02:38;3.08;;;1.15;;
81621;SDS011;71029;50.742;7.090;2023-07-20T13:05:04;3.22;;;0.77;;
81621;SDS011;71029;50.742;7.090;2023-07-20T13:07:32;2.65;;;0.88;;
81621;SDS011;71029;50.742;7.090;2023-07-20T13:10:06;1.65;;;0.70;;
81621;SDS011;71029;50.742;7.090;2023-07-20T13:12:34;2.17;;;0.70;;
81621;SDS011;71029;50.742;7.090;2023-07-20T13:15:05;3.63;;;1.10;;
81621;SDS011;71029;50.742;7.090;2023-07-20T13:17:34;2.05;;;0.98;;
81621;SDS011;71029;50.742;7.090;2023-07-20T13:20:01;2.53;;;0.85;;
81621;SDS011;71029;50.742;7.090;2023-07-20T13:22:31;2.88;;;0.90;;
81621;SDS011;71029;50.742;7.090;2023-07-20T13:24:57;2.60;;;0.80;;
81621;SDS011;71029;50.742;7.090;2023-07-20T13:27:24;3.25;;;0.90;;
81621;SDS011;71029;50.742;7.090;2023-07-20T13:29:52;2.20;;;0.80;;
81621;SDS011;71029;50.742;7.090;2023-07-20T13:32:19;1.58;;;0.80;;
81621;SDS011;71029;50.742;7.090;2023-07-20T13:34:46;4.35;;;0.82;;
81621;SDS011;71029;50.742;7.090;2023-07-20T13:37:14;1.30;;;0.88;;
81621;SDS011;71029;50.742;7.090;2023-07-20T13:39:42;1.80;;;0.82;;
81621;SDS011;71029;50.742;7.090;2023-07-20T13:42:08;2.35;;;0.85;;
81621;SDS011;71029;50.742;7.090;2023-07-20T13:44:36;2.53;;;1.02;;
81621;SDS011;71029;50.742;7.090;2023-07-20T13:47:03;3.00;;;0.82;;
81621;SDS011;71029;50.742;7.090;2023-07-20T13:49:36;3.05;;;0.70;;
81621;SDS011;71029;50.742;7.090;2023-07-20T13:52:11;1.83;;;0.73;;
81621;SDS011;71029;50.742;7.090;2023-07-20T13:54:41;1.10;;;0.55;;
81621;SDS011;71029;50.742;7.090;2023-07-20T13:57:14;4.10;;;0.90;;
81621;SDS011;71029;50.742;7.090;2023-07-20T13:59:41;1.75;;;0.63;;
81621;SDS011;71029;50.742;7.090;2023-07-20T14:02:13;3.00;;;0.63;;
81621;SDS011;71029;50.742;7.090;2023-07-20T14:04:43;2.10;;;0.82;;
81621;SDS011;71029;50.742;7.090;2023-07-20T14:07:10;4.93;;;0.60;;
81621;SDS011;71029;50.742;7.090;2023-07-20T14:09:37;2.30;;;0.95;;
81621;SDS011;71029;50.742;7.090;2023-07-20T14:14:50;2.08;;;1.10;;
81621;SDS011;71029;50.742;7.090;2023-07-20T14:17:17;2.03;;;0.77;;
81621;SDS011;71029;50.742;7.090;2023-07-20T14:19:44;1.42;;;0.70;;
81621;SDS011;71029;50.742;7.090;2023-07-20T14:22:10;2.40;;;0.88;;
81621;SDS011;71029;50.742;7.090;2023-07-20T14:24:37;3.92;;;0.80;;
81621;SDS011;71029;50.742;7.090;2023-07-20T14:27:04;1.52;;;0.63;;
81621;SDS011;71029;50.742;7.090;2023-07-20T14:29:31;2.22;;;0.75;;
81621;SDS011;71029;50.742;7.090;2023-07-20T14:31:58;1.70;;;0.73;;
81621;SDS011;71029;50.742;7.090;2023-07-20T14:34:25;3.80;;;1.05;;
81621;SDS011;71029;50.742;7.090;2023-07-20T14:36:52;4.68;;;0.70;;
81621;SDS011;71029;50.742;7.090;2023-07-20T14:39:18;3.28;;;0.63;;
81621;SDS011;71029;50.742;7.090;2023-07-20T14:41:45;1.83;;;0.80;;
81621;SDS011;71029;50.742;7.090;2023-07-20T14:44:12;1.60;;;0.65;;
81621;SDS011;71029;50.742;7.090;2023-07-20T14:46:38;1.65;;;0.85;;
81621;SDS011;71029;50.742;7.090;2023-07-20T14:49:05;2.35;;;0.80;;
81621;SDS011;71029;50.742;7.090;2023-07-20T14:51:34;2.03;;;1.00;;
81621;SDS011;71029;50.742;7.090;2023-07-20T14:54:03;2.08;;;0.75;;
81621;SDS011;71029;50.742;7.090;2023-07-20T14:56:30;2.22;;;0.70;;
81621;SDS011;71029;50.742;7.090;2023-07-20T14:58:57;2.03;;;1.00;;
81621;SDS011;71029;50.742;7.090;2023-07-20T15:01:24;3.35;;;0.75;;
81621;SDS011;71029;50.742;7.090;2023-07-20T15:03:51;1.55;;;0.98;;
81621;SDS011;71029;50.742;7.090;2023-07-20T15:06:24;1.63;;;0.70;;
81621;SDS011;71029;50.742;7.090;2023-07-20T15:08:51;1.75;;;0.85;;
81621;SDS011;71029;50.742;7.090;2023-07-20T15:11:18;1.48;;;0.73;;
81621;SDS011;71029;50.742;7.090;2023-07-20T15:13:45;1.83;;;0.63;;
81621;SDS011;71029;50.742;7.090;2023-07-20T15:16:12;2.38;;;0.75;;
81621;SDS011;71029;50.742;7.090;2023-07-20T15:18:39;1.63;;;0.70;;
81621;SDS011;71029;50.742;7.090;2023-07-20T15:23:40;1.83;;;0.77;;
81621;SDS011;71029;50.742;7.090;2023-07-20T15:26:07;1.90;;;0.77;;